sensor_id;sensor_type;location;lat;lon;timestamp;pressure;altitude;pressure_sealevel;temperature;humidity
50011;BME280;35899;50.352;19.390;2022-11-15T00:00:17;98075.84;;;4.13;96.34
50011;BME280;35899;50.352;19.390;2022-11-15T00:03:04;98073.27;;;4.13;96.54
50011;BME280;35899;50.352;19.390;2022-11-15T00:05:49;98075.99;;;4.10;96.33
50011;BME280;35899;50.352;19.390;2022-11-15T00:08:34;98070.02;;;4.09;96.57
50011;BME280;35899;50.352;19.390;2022-11-15T00:11:19;98067.00;;;4.10;96.56
50011;BME280;35899;50.352;19.390;2022-11-15T00:14:04;98068.80;;;4.08;96.24
50011;BME280;35899;50.352;19.390;2022-11-15T00:16:49;98067.31;;;4.02;96.02
50011;BME280;35899;50.352;19.390;2022-11-15T00:19:34;98059.88;;;3.96;95.92
50011;BME280;35899;50.352;19.390;2022-11-15T00:22:19;98059.94;;;3.95;96.08
50011;BME280;35899;50.352;19.390;2022-11-15T00:25:04;98060.45;;;3.93;96.01
50011;BME280;35899;50.352;19.390;2022-11-15T00:27:50;98055.88;;;3.89;95.81
50011;BME280;35899;50.352;19.390;2022-11-15T00:30:35;98052.97;;;3.86;95.87
50011;BME280;35899;50.352;19.390;2022-11-15T00:33:19;98053.06;;;3.85;95.99
50011;BME280;35899;50.352;19.390;2022-11-15T00:36:06;98055.28;;;3.82;95.80
50011;BME280;35899;50.352;19.390;2022-11-15T00:38:52;98057.99;;;3.79;95.83
50011;BME280;35899;50.352;19.390;2022-11-15T00:41:37;98055.42;;;3.79;96.02
50011;BME280;35899;50.352;19.390;2022-11-15T00:44:22;98054.66;;;3.77;95.79
50011;BME280;35899;50.352;19.390;2022-11-15T00:47:07;98058.56;;;3.76;95.81
50011;BME280;35899;50.352;19.390;2022-11-15T00:49:52;98048.34;;;3.74;95.89
50011;BME280;35899;50.352;19.390;2022-11-15T00:52:37;98045.73;;;3.76;96.13
50011;BME280;35899;50.352;19.390;2022-11-15T00:55:21;98047.02;;;3.76;95.98
50011;BME280;35899;50.352;19.390;2022-11-15T00:58:07;98045.78;;;3.74;95.98
50011;BME280;35899;50.352;19.390;2022-11-15T01:00:52;98041.11;;;3.74;96.04
50011;BME280;35899;50.352;19.390;2022-11-15T01:03:37;98036.39;;;3.73;95.92
50011;BME280;35899;50.352;19.390;2022-11-15T01:06:23;98033.97;;;3.70;95.61
50011;BME280;35899;50.352;19.390;2022-11-15T01:09:08;98026.90;;;3.65;95.49
50011;BME280;35899;50.352;19.390;2022-11-15T01:11:52;98033.06;;;3.61;95.33
50011;BME280;35899;50.352;19.390;2022-11-15T01:14:37;98030.34;;;3.53;95.04
50011;BME280;35899;50.352;19.390;2022-11-15T01:17:22;98027.06;;;3.50;95.49
50011;BME280;35899;50.352;19.390;2022-11-15T01:20:08;98030.08;;;3.49;95.53
50011;BME280;35899;50.352;19.390;2022-11-15T01:22:54;98031.62;;;3.43;95.16
50011;BME280;35899;50.352;19.390;2022-11-15T01:25:39;98025.31;;;3.40;95.20
50011;BME280;35899;50.352;19.390;2022-11-15T01:28:24;98031.47;;;3.36;95.03
50011;BME280;35899;50.352;19.390;2022-11-15T01:31:15;98024.84;;;3.30;95.03
50011;BME280;35899;50.352;19.390;2022-11-15T01:34:01;98018.11;;;3.28;95.15
50011;BME280;35899;50.352;19.390;2022-11-15T01:36:46;98012.27;;;3.24;95.24
50011;BME280;35899;50.352;19.390;2022-11-15T01:39:31;98013.66;;;3.21;95.16
50011;BME280;35899;50.352;19.390;2022-11-15T01:42:16;98005.23;;;3.18;95.19
50011;BME280;35899;50.352;19.390;2022-11-15T01:45:01;98003.53;;;3.18;95.38
50011;BME280;35899;50.352;19.390;2022-11-15T01:47:51;98003.53;;;3.18;95.52
50011;BME280;35899;50.352;19.390;2022-11-15T01:50:37;98002.16;;;3.20;95.52
50011;BME280;35899;50.352;19.390;2022-11-15T01:53:23;98005.64;;;3.19;95.37
50011;BME280;35899;50.352;19.390;2022-11-15T01:56:11;97997.63;;;3.16;95.22
50011;BME280;35899;50.352;19.390;2022-11-15T01:59:00;98000.25;;;3.15;95.28
50011;BME280;35899;50.352;19.390;2022-11-15T02:01:47;97998.19;;;3.12;95.22
50011;BME280;35899;50.352;19.390;2022-11-15T02:04:35;97986.70;;;3.11;95.21
50011;BME280;35899;50.352;19.390;2022-11-15T02:07:22;97985.53;;;3.08;95.20
50011;BME280;35899;50.352;19.390;2022-11-15T02:10:19;97980.91;;;3.06;95.33
50011;BME280;35899;50.352;19.390;2022-11-15T02:13:05;97973.41;;;3.01;95.17
50011;BME280;35899;50.352;19.390;2022-11-15T02:15:56;97974.03;;;2.96;94.94
50011;BME280;35899;50.352;19.390;2022-11-15T02:22:41;97965.16;;;2.93;95.14
50011;BME280;35899;50.352;19.390;2022-11-15T02:29:03;97955.55;;;2.88;95.28
50011;BME280;35899;50.352;19.390;2022-11-15T02:32:00;97957.77;;;2.85;95.28
50011;BME280;35899;50.352;19.390;2022-11-15T02:38:22;97950.10;;;2.73;94.79
50011;BME280;35899;50.352;19.390;2022-11-15T02:41:13;97945.11;;;2.70;95.16
50011;BME280;35899;50.352;19.390;2022-11-15T02:44:02;97943.11;;;2.67;94.89
50011;BME280;35899;50.352;19.390;2022-11-15T02:46:54;97945.96;;;2.59;94.53
50011;BME280;35899;50.352;19.390;2022-11-15T02:49:47;97940.06;;;2.57;94.93
50011;BME280;35899;50.352;19.390;2022-11-15T02:52:35;97936.33;;;2.54;94.90
50011;BME280;35899;50.352;19.390;2022-11-15T02:55:35;97926.69;;;2.49;94.66
50011;BME280;35899;50.352;19.390;2022-11-15T02:58:55;97927.59;;;2.48;94.97
50011;BME280;35899;50.352;19.390;2022-11-15T03:02:09;97925.35;;;2.50;95.39
50011;BME280;35899;50.352;19.390;2022-11-15T03:07:44;97921.11;;;2.49;95.30
50011;BME280;35899;50.352;19.390;2022-11-15T03:13:59;97919.19;;;2.44;94.94
50011;BME280;35899;50.352;19.390;2022-11-15T03:19:59;97915.36;;;2.32;94.66
50011;BME280;35899;50.352;19.390;2022-11-15T03:22:48;97912.58;;;2.27;94.44
50011;BME280;35899;50.352;19.390;2022-11-15T03:25:36;97907.05;;;2.26;94.67
50011;BME280;35899;50.352;19.390;2022-11-15T03:28:34;97904.99;;;2.24;94.47
50011;BME280;35899;50.352;19.390;2022-11-15T03:31:19;97905.18;;;2.19;94.59
50011;BME280;35899;50.352;19.390;2022-11-15T03:34:06;97897.14;;;2.17;94.59
50011;BME280;35899;50.352;19.390;2022-11-15T03:36:52;97894.98;;;2.18;94.94
50011;BME280;35899;50.352;19.390;2022-11-15T03:39:37;97889.46;;;2.17;95.00
50011;BME280;35899;50.352;19.390;2022-11-15T03:42:31;97893.25;;;2.18;95.08
50011;BME280;35899;50.352;19.390;2022-11-15T03:45:31;97892.07;;;2.15;94.74
50011;BME280;35899;50.352;19.390;2022-11-15T03:48:22;97887.13;;;2.10;94.58
50011;BME280;35899;50.352;19.390;2022-11-15T03:51:09;97882.06;;;2.09;94.55
50011;BME280;35899;50.352;19.390;2022-11-15T03:53:54;97883.12;;;2.03;94.29
50011;BME280;35899;50.352;19.390;2022-11-15T03:56:39;97877.17;;;2.03;94.68
50011;BME280;35899;50.352;19.390;2022-11-15T03:59:24;97872.45;;;2.04;94.80
50011;BME280;35899;50.352;19.390;2022-11-15T04:02:09;97864.38;;;2.03;94.62
50011;BME280;35899;50.352;19.390;2022-11-15T04:04:54;97858.42;;;2.02;94.65
50011;BME280;35899;50.352;19.390;2022-11-15T04:07:39;97857.97;;;2.03;94.63
50011;BME280;35899;50.352;19.390;2022-11-15T04:10:24;97850.69;;;2.04;94.71
50011;BME280;35899;50.352;19.390;2022-11-15T04:13:09;97851.17;;;2.02;94.60
50011;BME280;35899;50.352;19.390;2022-11-15T04:15:54;97851.17;;;2.02;94.61
50011;BME280;35899;50.352;19.390;2022-11-15T04:18:39;97839.27;;;2.01;94.63
50011;BME280;35899;50.352;19.390;2022-11-15T04:21:23;97844.50;;;1.98;94.58
50011;BME280;35899;50.352;19.390;2022-11-15T04:24:08;97835.94;;;1.99;94.95
50011;BME280;35899;50.352;19.390;2022-11-15T04:26:53;97835.48;;;1.99;94.95
50011;BME280;35899;50.352;19.390;2022-11-15T04:29:39;97832.09;;;1.99;94.77
50011;BME280;35899;50.352;19.390;2022-11-15T04:32:23;97832.66;;;1.95;94.53
50011;BME280;35899;50.352;19.390;2022-11-15T04:35:08;97829.32;;;1.93;94.72
50011;BME280;35899;50.352;19.390;2022-11-15T04:37:53;97829.27;;;1.94;94.91
50011;BME280;35899;50.352;19.390;2022-11-15T04:40:39;97830.92;;;1.95;95.12
50011;BME280;35899;50.352;19.390;2022-11-15T04:43:24;97827.48;;;1.97;95.10
50011;BME280;35899;50.352;19.390;2022-11-15T04:46:09;97824.06;;;1.96;94.96
50011;BME280;35899;50.352;19.390;2022-11-15T04:48:54;97818.17;;;1.94;94.66
50011;BME280;35899;50.352;19.390;2022-11-15T04:51:39;97815.29;;;1.91;94.65
50011;BME280;35899;50.352;19.390;2022-11-15T04:54:24;97820.01;;;1.90;94.66
50011;BME280;35899;50.352;19.390;2022-11-15T04:57:09;97823.07;;;1.88;94.48
50011;BME280;35899;50.352;19.390;2022-11-15T04:59:53;97815.89;;;1.86;94.39
50011;BME280;35899;50.352;19.390;2022-11-15T05:02:38;97808.40;;;1.82;94.05
50011;BME280;35899;50.352;19.390;2022-11-15T05:05:24;97805.99;;;1.77;93.78
50011;BME280;35899;50.352;19.390;2022-11-15T05:08:09;97802.44;;;1.69;93.55
50011;BME280;35899;50.352;19.390;2022-11-15T05:10:54;97799.78;;;1.61;93.39
50011;BME280;35899;50.352;19.390;2022-11-15T05:13:38;97791.83;;;1.56;93.45
50011;BME280;35899;50.352;19.390;2022-11-15T05:16:23;97793.31;;;1.50;93.31
50011;BME280;35899;50.352;19.390;2022-11-15T05:19:08;97791.20;;;1.50;93.55
50011;BME280;35899;50.352;19.390;2022-11-15T05:21:53;97795.22;;;1.45;93.25
50011;BME280;35899;50.352;19.390;2022-11-15T05:24:38;97792.76;;;1.42;93.42
50011;BME280;35899;50.352;19.390;2022-11-15T05:27:22;97789.92;;;1.38;93.12
50011;BME280;35899;50.352;19.390;2022-11-15T05:30:08;97791.30;;;1.35;93.36
50011;BME280;35899;50.352;19.390;2022-11-15T05:32:53;97785.86;;;1.32;93.20
50011;BME280;35899;50.352;19.390;2022-11-15T05:35:41;97788.59;;;1.28;93.18
50011;BME280;35899;50.352;19.390;2022-11-15T05:38:27;97784.02;;;1.24;93.06
50011;BME280;35899;50.352;19.390;2022-11-15T05:41:13;97781.66;;;1.18;92.64
50011;BME280;35899;50.352;19.390;2022-11-15T05:44:00;97782.83;;;1.09;92.44
50011;BME280;35899;50.352;19.390;2022-11-15T05:46:46;97774.09;;;1.03;92.47
50011;BME280;35899;50.352;19.390;2022-11-15T05:49:34;97771.30;;;0.97;92.29
50011;BME280;35899;50.352;19.390;2022-11-15T05:52:23;97775.48;;;0.87;91.99
50011;BME280;35899;50.352;19.390;2022-11-15T05:55:10;97774.38;;;0.82;92.42
50011;BME280;35899;50.352;19.390;2022-11-15T05:57:55;97779.86;;;0.83;92.53
50011;BME280;35899;50.352;19.390;2022-11-15T06:00:39;97778.59;;;0.83;92.71
50011;BME280;35899;50.352;19.390;2022-11-15T06:03:24;97760.34;;;0.69;92.92
50011;BME280;35899;50.352;19.390;2022-11-15T06:06:09;97774.80;;;0.82;93.10
50011;BME280;35899;50.352;19.390;2022-11-15T06:08:54;97782.37;;;0.85;93.31
50011;BME280;35899;50.352;19.390;2022-11-15T06:11:39;97787.31;;;0.89;93.35
50011;BME280;35899;50.352;19.390;2022-11-15T06:14:24;97788.31;;;0.85;92.87
50011;BME280;35899;50.352;19.390;2022-11-15T06:17:09;97780.81;;;0.81;92.79
50011;BME280;35899;50.352;19.390;2022-11-15T06:19:53;97784.10;;;0.84;92.75
50011;BME280;35899;50.352;19.390;2022-11-15T06:22:39;97778.05;;;0.87;92.63
50011;BME280;35899;50.352;19.390;2022-11-15T06:25:24;97778.05;;;0.87;92.63
50011;BME280;35899;50.352;19.390;2022-11-15T06:28:09;97783.84;;;0.92;93.14
50011;BME280;35899;50.352;19.390;2022-11-15T06:30:54;97780.98;;;1.01;93.50
50011;BME280;35899;50.352;19.390;2022-11-15T06:33:40;97779.48;;;1.07;93.25
50011;BME280;35899;50.352;19.390;2022-11-15T06:36:25;97773.20;;;1.16;93.48
50011;BME280;35899;50.352;19.390;2022-11-15T06:39:10;97774.63;;;1.25;93.64
50011;BME280;35899;50.352;19.390;2022-11-15T06:41:55;97786.54;;;1.38;94.05
50011;BME280;35899;50.352;19.390;2022-11-15T06:44:40;97784.36;;;1.50;94.18
50011;BME280;35899;50.352;19.390;2022-11-15T06:47:25;97778.48;;;1.60;93.91
50011;BME280;35899;50.352;19.390;2022-11-15T06:50:10;97781.91;;;1.71;93.92
50011;BME280;35899;50.352;19.390;2022-11-15T06:52:54;97781.48;;;1.83;94.00
50011;BME280;35899;50.352;19.390;2022-11-15T06:55:39;97778.95;;;1.93;94.01
50011;BME280;35899;50.352;19.390;2022-11-15T06:58:24;97776.82;;;2.05;94.04
50011;BME280;35899;50.352;19.390;2022-11-15T07:01:11;97772.95;;;2.17;94.03
50011;BME280;35899;50.352;19.390;2022-11-15T07:03:56;97775.47;;;2.28;94.02
50011;BME280;35899;50.352;19.390;2022-11-15T07:06:42;97775.88;;;2.40;93.92
50011;BME280;35899;50.352;19.390;2022-11-15T07:56:30;97770.43;;;3.60;92.70
50011;BME280;35899;50.352;19.390;2022-11-15T07:59:16;97765.95;;;3.74;92.98
50011;BME280;35899;50.352;19.390;2022-11-15T08:02:01;97764.50;;;3.87;93.17
50011;BME280;35899;50.352;19.390;2022-11-15T08:04:46;97759.17;;;4.01;93.29
50011;BME280;35899;50.352;19.390;2022-11-15T08:07:31;97769.33;;;4.13;93.37
50011;BME280;35899;50.352;19.390;2022-11-15T08:10:16;97763.23;;;4.24;93.51
50011;BME280;35899;50.352;19.390;2022-11-15T08:13:02;97762.57;;;4.38;93.65
50011;BME280;35899;50.352;19.390;2022-11-15T08:15:49;97762.83;;;4.50;93.82
50011;BME280;35899;50.352;19.390;2022-11-15T08:18:35;97765.18;;;4.64;94.01
50011;BME280;35899;50.352;19.390;2022-11-15T08:21:20;97764.95;;;4.77;94.20
50011;BME280;35899;50.352;19.390;2022-11-15T08:24:05;97760.80;;;4.92;94.50
50011;BME280;35899;50.352;19.390;2022-11-15T08:26:52;97751.56;;;5.05;94.50
50011;BME280;35899;50.352;19.390;2022-11-15T08:29:37;97748.20;;;5.21;94.73
50011;BME280;35899;50.352;19.390;2022-11-15T08:32:21;97749.98;;;5.36;95.01
50011;BME280;35899;50.352;19.390;2022-11-15T08:35:07;97746.25;;;5.51;95.21
50011;BME280;35899;50.352;19.390;2022-11-15T08:37:55;97746.65;;;5.67;95.27
50011;BME280;35899;50.352;19.390;2022-11-15T08:40:40;97745.08;;;5.81;95.26
50011;BME280;35899;50.352;19.390;2022-11-15T08:43:25;97750.25;;;5.97;95.26
50011;BME280;35899;50.352;19.390;2022-11-15T08:46:12;97750.50;;;6.08;95.31
50011;BME280;35899;50.352;19.390;2022-11-15T08:48:58;97750.48;;;6.24;95.89
50011;BME280;35899;50.352;19.390;2022-11-15T08:51:43;97747.90;;;6.40;96.04
50011;BME280;35899;50.352;19.390;2022-11-15T08:54:27;97744.61;;;6.52;95.81
50011;BME280;35899;50.352;19.390;2022-11-15T08:57:12;97737.39;;;6.73;95.98
50011;BME280;35899;50.352;19.390;2022-11-15T08:59:57;97742.24;;;7.08;96.58
50011;BME280;35899;50.352;19.390;2022-11-15T09:02:42;97741.24;;;7.54;97.37
50011;BME280;35899;50.352;19.390;2022-11-15T09:05:27;97741.75;;;8.02;96.73
50011;BME280;35899;50.352;19.390;2022-11-15T09:08:12;97730.33;;;8.53;97.05
50011;BME280;35899;50.352;19.390;2022-11-15T09:10:57;97730.66;;;9.07;96.08
50011;BME280;35899;50.352;19.390;2022-11-15T09:13:42;97725.55;;;9.57;95.32
50011;BME280;35899;50.352;19.390;2022-11-15T09:16:27;97726.70;;;10.08;94.32
50011;BME280;35899;50.352;19.390;2022-11-15T09:19:12;97723.56;;;10.59;94.10
50011;BME280;35899;50.352;19.390;2022-11-15T09:21:57;97720.03;;;11.12;93.37
50011;BME280;35899;50.352;19.390;2022-11-15T09:24:42;97721.44;;;11.61;91.56
50011;BME280;35899;50.352;19.390;2022-11-15T09:27:30;97718.34;;;12.01;90.17
50011;BME280;35899;50.352;19.390;2022-11-15T09:30:15;97717.60;;;12.48;89.43
50011;BME280;35899;50.352;19.390;2022-11-15T09:33:09;97715.02;;;12.90;87.39
50011;BME280;35899;50.352;19.390;2022-11-15T09:36:04;97713.87;;;13.25;86.29
50011;BME280;35899;50.352;19.390;2022-11-15T09:38:48;97708.70;;;13.66;85.13
50011;BME280;35899;50.352;19.390;2022-11-15T09:45:07;97707.80;;;14.31;82.05
50011;BME280;35899;50.352;19.390;2022-11-15T09:50:49;97690.36;;;15.14;79.64
50011;BME280;35899;50.352;19.390;2022-11-15T09:56:29;97683.65;;;15.67;76.16
50011;BME280;35899;50.352;19.390;2022-11-15T10:04:54;97666.54;;;16.54;72.06
50011;BME280;35899;50.352;19.390;2022-11-15T10:07:26;97661.24;;;16.86;71.46
50011;BME280;35899;50.352;19.390;2022-11-15T10:12:52;97645.50;;;17.46;68.33
50011;BME280;35899;50.352;19.390;2022-11-15T10:15:19;97639.69;;;17.73;68.24
50011;BME280;35899;50.352;19.390;2022-11-15T10:20:42;97629.63;;;18.35;65.12
50011;BME280;35899;50.352;19.390;2022-11-15T10:23:14;97632.55;;;18.78;64.55
50011;BME280;35899;50.352;19.390;2022-11-15T10:25:43;97620.63;;;19.27;64.12
50011;BME280;35899;50.352;19.390;2022-11-15T10:28:15;97623.94;;;19.56;61.75
50011;BME280;35899;50.352;19.390;2022-11-15T10:30:46;97624.26;;;19.92;62.32
50011;BME280;35899;50.352;19.390;2022-11-15T10:33:27;97616.33;;;20.20;60.11
50011;BME280;35899;50.352;19.390;2022-11-15T10:49:26;97604.57;;;21.17;54.85
50011;BME280;35899;50.352;19.390;2022-11-15T10:52:15;97597.59;;;21.50;54.82
50011;BME280;35899;50.352;19.390;2022-11-15T10:55:00;97587.97;;;21.90;54.16
50011;BME280;35899;50.352;19.390;2022-11-15T10:57:32;97593.91;;;22.52;54.69
50011;BME280;35899;50.352;19.390;2022-11-15T11:00:47;97586.94;;;22.90;52.38
50011;BME280;35899;50.352;19.390;2022-11-15T11:02:41;97596.33;;;23.21;52.29
50011;BME280;35899;50.352;19.390;2022-11-15T11:08:19;97589.90;;;23.19;47.76
50011;BME280;35899;50.352;19.390;2022-11-15T11:10:35;97588.12;;;22.98;46.72
50011;BME280;35899;50.352;19.390;2022-11-15T11:13:21;97585.32;;;22.89;46.78
50011;BME280;35899;50.352;19.390;2022-11-15T11:27:39;97577.18;;;24.58;45.90
50011;BME280;35899;50.352;19.390;2022-11-15T11:36:04;97561.87;;;25.03;43.77
50011;BME280;35899;50.352;19.390;2022-11-15T11:44:28;97558.42;;;25.54;41.50
50011;BME280;35899;50.352;19.390;2022-11-15T11:47:01;97550.78;;;25.64;41.31
50011;BME280;35899;50.352;19.390;2022-11-15T11:49:58;97553.63;;;25.85;39.75
50011;BME280;35899;50.352;19.390;2022-11-15T11:52:40;97549.75;;;26.04;41.16
50011;BME280;35899;50.352;19.390;2022-11-15T11:55:15;97547.21;;;26.50;41.22
50011;BME280;35899;50.352;19.390;2022-11-15T12:00:41;97534.27;;;26.79;40.13
50011;BME280;35899;50.352;19.390;2022-11-15T12:03:46;97525.53;;;26.03;39.00
50011;BME280;35899;50.352;19.390;2022-11-15T12:09:23;97524.50;;;23.44;40.82
50011;BME280;35899;50.352;19.390;2022-11-15T12:12:13;97520.72;;;22.77;41.34
50011;BME280;35899;50.352;19.390;2022-11-15T12:14:46;97519.58;;;21.91;42.15
50011;BME280;35899;50.352;19.390;2022-11-15T12:17:21;97520.27;;;21.89;42.44
50011;BME280;35899;50.352;19.390;2022-11-15T12:19:50;97521.98;;;21.38;43.32
50011;BME280;35899;50.352;19.390;2022-11-15T12:22:39;97520.22;;;20.94;44.19
50011;BME280;35899;50.352;19.390;2022-11-15T12:28:17;97515.68;;;20.05;45.02
50011;BME280;35899;50.352;19.390;2022-11-15T12:30:51;97513.19;;;19.62;45.46
50011;BME280;35899;50.352;19.390;2022-11-15T12:33:32;97511.36;;;19.04;46.49
50011;BME280;35899;50.352;19.390;2022-11-15T12:36:08;97509.88;;;18.53;47.01
50011;BME280;35899;50.352;19.390;2022-11-15T12:39:10;97499.25;;;17.81;47.24
50011;BME280;35899;50.352;19.390;2022-11-15T12:41:43;97502.48;;;17.34;48.22
50011;BME280;35899;50.352;19.390;2022-11-15T12:49:51;97500.78;;;15.73;50.83
50011;BME280;35899;50.352;19.390;2022-11-15T12:52:17;97496.11;;;15.49;51.82
50011;BME280;35899;50.352;19.390;2022-11-15T12:54:55;97491.70;;;15.32;52.60
50011;BME280;35899;50.352;19.390;2022-11-15T12:57:23;97486.15;;;15.17;53.31
50011;BME280;35899;50.352;19.390;2022-11-15T12:59:56;97487.40;;;14.95;53.73
50011;BME280;35899;50.352;19.390;2022-11-15T13:02:33;97489.13;;;14.76;54.54
50011;BME280;35899;50.352;19.390;2022-11-15T13:13:00;97479.94;;;13.82;56.86
50011;BME280;35899;50.352;19.390;2022-11-15T13:16:05;97478.11;;;13.59;57.53
50011;BME280;35899;50.352;19.390;2022-11-15T13:18:33;97471.66;;;13.43;58.07
50011;BME280;35899;50.352;19.390;2022-11-15T13:21:01;97466.80;;;13.19;58.55
50011;BME280;35899;50.352;19.390;2022-11-15T13:23:29;97461.43;;;13.01;59.08
50011;BME280;35899;50.352;19.390;2022-11-15T13:26:13;97460.37;;;12.88;59.61
50011;BME280;35899;50.352;19.390;2022-11-15T13:28:51;97461.78;;;12.77;60.07
50011;BME280;35899;50.352;19.390;2022-11-15T13:31:26;97459.27;;;12.66;60.47
50011;BME280;35899;50.352;19.390;2022-11-15T13:34:00;97457.81;;;12.58;61.03
50011;BME280;35899;50.352;19.390;2022-11-15T13:36:31;97452.22;;;12.47;61.42
50011;BME280;35899;50.352;19.390;2022-11-15T13:39:02;97450.75;;;12.39;61.82
50011;BME280;35899;50.352;19.390;2022-11-15T13:41:35;97451.66;;;12.28;62.42
50011;BME280;35899;50.352;19.390;2022-11-15T13:44:03;97446.56;;;12.17;63.05
50011;BME280;35899;50.352;19.390;2022-11-15T13:46:31;97448.15;;;12.08;63.41
50011;BME280;35899;50.352;19.390;2022-11-15T13:49:09;97441.47;;;12.00;63.95
50011;BME280;35899;50.352;19.390;2022-11-15T13:54:19;97434.56;;;11.83;64.64
50011;BME280;35899;50.352;19.390;2022-11-15T13:57:00;97439.70;;;11.73;65.07
50011;BME280;35899;50.352;19.390;2022-11-15T13:59:36;97436.07;;;11.65;65.41
50011;BME280;35899;50.352;19.390;2022-11-15T14:02:14;97429.88;;;11.56;65.72
50011;BME280;35899;50.352;19.390;2022-11-15T14:04:55;97425.52;;;11.51;66.13
50011;BME280;35899;50.352;19.390;2022-11-15T14:07:23;97427.56;;;11.42;66.35
50011;BME280;35899;50.352;19.390;2022-11-15T14:09:51;97419.91;;;11.34;66.71
50011;BME280;35899;50.352;19.390;2022-11-15T14:12:32;97423.62;;;11.26;66.90
50011;BME280;35899;50.352;19.390;2022-11-15T14:17:52;97421.33;;;11.12;67.56
50011;BME280;35899;50.352;19.390;2022-11-15T14:23:05;97411.92;;;10.94;68.21
50011;BME280;35899;50.352;19.390;2022-11-15T14:25:35;97410.64;;;10.88;68.69
50011;BME280;35899;50.352;19.390;2022-11-15T14:28:11;97410.77;;;10.81;68.98
50011;BME280;35899;50.352;19.390;2022-11-15T14:30:43;97410.44;;;10.74;69.23
50011;BME280;35899;50.352;19.390;2022-11-15T14:33:25;97398.55;;;10.66;69.59
50011;BME280;35899;50.352;19.390;2022-11-15T14:35:56;97407.77;;;10.59;69.86
50011;BME280;35899;50.352;19.390;2022-11-15T14:38:25;97406.47;;;10.53;70.16
50011;BME280;35899;50.352;19.390;2022-11-15T14:40:52;97408.59;;;10.48;70.56
50011;BME280;35899;50.352;19.390;2022-11-15T14:43:22;97400.59;;;10.40;70.66
50011;BME280;35899;50.352;19.390;2022-11-15T14:45:48;97404.00;;;10.35;70.93
50011;BME280;35899;50.352;19.390;2022-11-15T14:48:15;97401.30;;;10.31;71.16
50011;BME280;35899;50.352;19.390;2022-11-15T14:50:44;97406.94;;;10.25;71.47
50011;BME280;35899;50.352;19.390;2022-11-15T14:53:17;97403.52;;;10.18;71.65
50011;BME280;35899;50.352;19.390;2022-11-15T14:55:44;97396.19;;;10.12;71.90
50011;BME280;35899;50.352;19.390;2022-11-15T14:58:10;97393.48;;;10.08;72.07
50011;BME280;35899;50.352;19.390;2022-11-15T15:00:39;97388.19;;;10.04;72.28
50011;BME280;35899;50.352;19.390;2022-11-15T15:03:06;97385.81;;;10.01;72.48
50011;BME280;35899;50.352;19.390;2022-11-15T15:05:39;97383.81;;;9.99;72.67
50011;BME280;35899;50.352;19.390;2022-11-15T15:08:09;97378.52;;;9.95;72.93
50011;BME280;35899;50.352;19.390;2022-11-15T15:10:42;97386.77;;;9.89;73.10
50011;BME280;35899;50.352;19.390;2022-11-15T15:13:22;97382.39;;;9.84;73.25
50011;BME280;35899;50.352;19.390;2022-11-15T15:15:51;97382.27;;;9.79;73.46
50011;BME280;35899;50.352;19.390;2022-11-15T15:18:18;97383.45;;;9.75;73.70
50011;BME280;35899;50.352;19.390;2022-11-15T15:20:47;97381.08;;;9.72;73.90
50011;BME280;35899;50.352;19.390;2022-11-15T15:23:22;97378.37;;;9.68;74.09
50011;BME280;35899;50.352;19.390;2022-11-15T15:25:48;97376.14;;;9.64;74.13
50011;BME280;35899;50.352;19.390;2022-11-15T15:28:15;97374.58;;;9.61;74.36
50011;BME280;35899;50.352;19.390;2022-11-15T15:30:41;97372.45;;;9.55;74.45
50011;BME280;35899;50.352;19.390;2022-11-15T15:33:08;97367.27;;;9.49;74.61
50011;BME280;35899;50.352;19.390;2022-11-15T15:35:34;97365.24;;;9.42;74.70
50011;BME280;35899;50.352;19.390;2022-11-15T15:38:02;97362.16;;;9.36;74.92
50011;BME280;35899;50.352;19.390;2022-11-15T15:40:30;97365.58;;;9.31;75.18
50011;BME280;35899;50.352;19.390;2022-11-15T15:42:58;97361.79;;;9.24;75.34
50011;BME280;35899;50.352;19.390;2022-11-15T15:45:25;97362.14;;;9.19;75.63
50011;BME280;35899;50.352;19.390;2022-11-15T15:47:51;97359.77;;;9.16;75.93
50011;BME280;35899;50.352;19.390;2022-11-15T15:52:52;97363.63;;;9.11;76.35
50011;BME280;35899;50.352;19.390;2022-11-15T15:55:20;97360.33;;;9.09;76.56
50011;BME280;35899;50.352;19.390;2022-11-15T15:57:47;97353.96;;;9.07;76.71
50011;BME280;35899;50.352;19.390;2022-11-15T16:00:15;97351.95;;;9.05;76.91
50011;BME280;35899;50.352;19.390;2022-11-15T16:02:43;97344.66;;;9.05;77.03
50011;BME280;35899;50.352;19.390;2022-11-15T16:05:11;97347.70;;;9.04;77.15
50011;BME280;35899;50.352;19.390;2022-11-15T16:07:39;97345.70;;;9.02;77.26
50011;BME280;35899;50.352;19.390;2022-11-15T16:10:21;97349.58;;;9.02;77.36
50011;BME280;35899;50.352;19.390;2022-11-15T16:12:50;97343.25;;;9.00;77.52
50011;BME280;35899;50.352;19.390;2022-11-15T16:15:17;97345.46;;;8.99;77.68
50011;BME280;35899;50.352;19.390;2022-11-15T16:17:50;97341.45;;;8.95;77.73
50011;BME280;35899;50.352;19.390;2022-11-15T16:20:40;97345.44;;;8.94;77.88
50011;BME280;35899;50.352;19.390;2022-11-15T16:23:13;97340.47;;;8.91;78.02
50011;BME280;35899;50.352;19.390;2022-11-15T16:28:30;97341.06;;;8.89;78.30
50011;BME280;35899;50.352;19.390;2022-11-15T16:31:01;97338.71;;;8.86;78.39
50011;BME280;35899;50.352;19.390;2022-11-15T16:33:28;97343.17;;;8.84;78.62
50011;BME280;35899;50.352;19.390;2022-11-15T16:35:55;97345.97;;;8.80;78.69
50011;BME280;35899;50.352;19.390;2022-11-15T16:38:23;97347.84;;;8.78;78.87
50011;BME280;35899;50.352;19.390;2022-11-15T16:40:49;97348.19;;;8.79;78.99
50011;BME280;35899;50.352;19.390;2022-11-15T16:43:16;97352.92;;;8.80;79.09
50011;BME280;35899;50.352;19.390;2022-11-15T16:45:43;97349.25;;;8.77;79.18
50011;BME280;35899;50.352;19.390;2022-11-15T16:48:26;97350.41;;;8.73;79.28
50011;BME280;35899;50.352;19.390;2022-11-15T16:50:55;97347.00;;;8.72;79.45
50011;BME280;35899;50.352;19.390;2022-11-15T16:53:24;97350.98;;;8.71;79.62